Time;durP1;ratioP1;P1;durP2;ratioP2;P2;SDS_P1;SDS_P2;PMS_P1;PMS_P2;Temp;Humidity;BMP_temperature;BMP_pressure;BME280_temperature;BME280_humidity;BME280_pressure;Samples;Min_cycle;Max_cycle;Signal;HPM_P1;HPM_P2
2023/05/28 00:00:06;;;;;;;7.10;2.70;;;;;;;9.01;54.67;102264.13;5095824;28;20073;-78
2023/05/28 00:02:39;;;;;;;6.35;2.55;;;;;;;9.09;54.53;102266.66;5089443;28;20362;-77
2023/05/28 00:05:05;;;;;;;12.52;3.17;;;;;;;8.83;55.14;102266.91;5093389;28;20036;-80
2023/05/28 00:07:31;;;;;;;14.95;3.33;;;;;;;9.14;53.86;102272.66;5117269;27;20039;-77
2023/05/28 00:10:00;;;;;;;12.63;2.67;;;;;;;9.04;54.07;102261.47;5074056;28;20036;-80
2023/05/28 00:12:25;;;;;;;5.75;3.17;;;;;;;8.98;54.25;102262.44;5085373;27;20036;-72
2023/05/28 00:14:51;;;;;;;7.07;2.45;;;;;;;9.12;54.08;102253.56;5082279;28;20072;-74
2023/05/28 00:17:17;;;;;;;11.65;3.17;;;;;;;9.16;54.07;102252.63;5084038;28;20039;-73
2023/05/28 00:19:43;;;;;;;12.32;4.10;;;;;;;9.11;53.79;102254.44;5083596;28;20036;-73
2023/05/28 00:22:10;;;;;;;16.02;3.50;;;;;;;9.10;54.02;102244.91;5089899;28;20087;-71
2023/05/28 00:24:35;;;;;;;9.13;2.90;;;;;;;9.15;53.92;102254.41;5080926;28;20058;-75
2023/05/28 00:27:01;;;;;;;12.73;2.97;;;;;;;8.95;54.10;102246.81;5073551;28;20035;-75
2023/05/28 00:29:26;;;;;;;8.57;2.95;;;;;;;9.10;53.98;102263.16;5091363;28;20139;-75
2023/05/28 00:31:55;;;;;;;9.23;3.30;;;;;;;9.12;53.79;102264.00;5083901;28;22060;-78
2023/05/28 00:34:25;;;;;;;12.50;3.30;;;;;;;9.22;53.54;102257.78;5086526;28;20040;-70
2023/05/28 00:36:51;;;;;;;15.27;3.60;;;;;;;9.22;53.67;102259.53;5088554;28;20066;-70
2023/05/28 00:39:17;;;;;;;11.45;3.42;;;;;;;9.23;53.74;102256.94;5083765;28;20759;-70
2023/05/28 00:41:43;;;;;;;9.90;3.38;;;;;;;9.23;53.51;102251.72;5082656;28;20735;-74
2023/05/28 00:44:09;;;;;;;10.73;3.40;;;;;;;9.19;53.75;102250.00;5075526;28;20101;-75
2023/05/28 00:46:36;;;;;;;9.98;4.03;;;;;;;9.25;53.91;102249.91;5083913;28;20081;-75
2023/05/28 00:49:02;;;;;;;9.98;3.40;;;;;;;9.26;53.49;102256.03;5080575;28;20032;-76
2023/05/28 00:51:28;;;;;;;16.40;3.40;;;;;;;9.37;53.21;102255.00;5065590;28;20050;-74
2023/05/28 00:53:54;;;;;;;8.93;3.30;;;;;;;9.30;53.74;102261.19;5104106;27;20069;-77
2023/05/28 00:56:22;;;;;;;11.48;3.30;;;;;;;9.34;53.29;102255.03;5082758;28;20603;-74
2023/05/28 00:58:49;;;;;;;8.18;3.30;;;;;;;9.38;53.55;102264.53;5071868;27;20043;-75
2023/05/28 01:01:14;;;;;;;8.15;3.20;;;;;;;9.23;53.26;102266.47;5089058;27;20047;-73
2023/05/28 01:03:41;;;;;;;6.70;2.55;;;;;;;9.23;53.14;102267.38;5090293;28;20036;-77
2023/05/28 01:06:11;;;;;;;11.45;3.42;;;;;;;9.23;53.36;102271.69;5098812;28;20032;-74
2023/05/28 01:08:40;;;;;;;14.65;2.97;;;;;;;9.09;53.61;102272.72;5092834;28;20049;-71
2023/05/28 01:11:10;;;;;;;12.48;3.40;;;;;;;9.23;53.43;102271.69;5089162;28;20059;-70
2023/05/28 01:13:39;;;;;;;11.55;3.50;;;;;;;9.25;53.54;102262.97;5065046;27;20027;-71
2023/05/28 01:16:05;;;;;;;7.50;2.60;;;;;;;9.40;53.03;102281.03;5099412;27;20377;-72
2023/05/28 01:18:32;;;;;;;7.75;2.83;;;;;;;9.45;52.64;102267.06;5088295;27;20125;-73
2023/05/28 01:21:01;;;;;;;9.98;2.38;;;;;;;9.38;52.71;102261.94;5091721;28;20101;-71
2023/05/28 01:23:28;;;;;;;10.10;2.67;;;;;;;9.52;52.81;102266.09;5086197;28;20035;-73
2023/05/28 01:25:56;;;;;;;11.15;3.30;;;;;;;9.59;52.63;102259.94;5071299;28;20028;-72
2023/05/28 01:28:22;;;;;;;8.85;3.10;;;;;;;9.45;52.31;102259.25;5071425;28;20059;-74
2023/05/28 01:30:48;;;;;;;10.98;3.13;;;;;;;9.40;52.74;102262.78;5085622;28;20035;-72
2023/05/28 01:33:15;;;;;;;9.27;2.50;;;;;;;9.43;52.59;102255.78;5119793;27;20089;-76
2023/05/28 01:35:41;;;;;;;7.93;2.53;;;;;;;9.34;52.77;102260.25;5082595;28;20028;-76
2023/05/28 01:38:10;;;;;;;9.13;2.58;;;;;;;9.51;52.50;102256.56;5089309;27;20116;-75
2023/05/28 01:40:40;;;;;;;11.32;3.22;;;;;;;9.57;52.32;102259.09;5092594;27;20031;-71
2023/05/28 01:43:05;;;;;;;7.40;3.03;;;;;;;9.61;52.31;102258.16;5117298;27;20701;-69
2023/05/28 01:45:31;;;;;;;10.60;2.63;;;;;;;9.63;52.39;102266.81;5085895;28;20039;-70
2023/05/28 01:47:57;;;;;;;5.28;2.38;;;;;;;9.62;52.26;102257.28;5089526;28;20168;-73
2023/05/28 01:50:23;;;;;;;9.93;3.50;;;;;;;9.54;52.13;102253.91;5087931;27;20556;-77
2023/05/28 01:52:49;;;;;;;10.75;2.80;;;;;;;9.51;52.17;102256.56;5073729;28;20039;-78
2023/05/28 01:55:15;;;;;;;9.60;2.28;;;;;;;9.48;52.84;102254.84;5098852;28;20463;-78
2023/05/28 01:57:42;;;;;;;6.00;2.35;;;;;;;9.47;52.60;102260.94;5102679;28;20042;-80
2023/05/28 02:00:11;;;;;;;6.28;1.92;;;;;;;9.44;52.79;102249.69;5106809;28;20031;-78
2023/05/28 02:02:43;;;;;;;10.15;2.90;;;;;;;9.45;52.39;102248.81;5123433;27;20044;-76
2023/05/28 02:05:11;;;;;;;6.63;1.92;;;;;;;9.44;52.44;102249.69;5112550;27;20093;-77
2023/05/28 02:07:37;;;;;;;7.82;2.35;;;;;;;9.40;52.41;102247.13;5093301;27;20771;-77
2023/05/28 02:10:03;;;;;;;11.43;2.88;;;;;;;9.30;53.06;102242.91;5126317;27;20036;-79
2023/05/28 02:12:29;;;;;;;12.38;2.53;;;;;;;9.56;52.40;102239.06;5092198;27;20038;-79
2023/05/28 02:14:56;;;;;;;8.45;1.90;;;;;;;9.52;52.10;102246.09;5096161;27;20099;-79
2023/05/28 02:17:21;;;;;;;8.88;2.38;;;;;;;9.61;52.52;102237.28;5070764;27;20689;-77
2023/05/28 02:19:47;;;;;;;11.05;2.58;;;;;;;9.68;52.10;102248.47;5107578;27;20528;-79
2023/05/28 02:22:13;;;;;;;7.40;2.42;;;;;;;9.65;52.37;102236.34;5080185;27;20055;-79
2023/05/28 02:24:39;;;;;;;4.10;2.22;;;;;;;9.78;51.51;102245.72;5090669;27;20126;-76
2023/05/28 02:27:09;;;;;;;5.88;2.17;;;;;;;9.71;52.03;102246.69;5095971;28;20032;-77
2023/05/28 02:29:36;;;;;;;8.13;3.00;;;;;;;9.68;52.16;102241.53;5088118;27;20880;-68
2023/05/28 02:32:02;;;;;;;9.68;3.35;;;;;;;9.76;51.50;102242.25;5091211;27;20039;-76
2023/05/28 02:34:28;;;;;;;19.05;3.28;;;;;;;9.73;51.78;102242.31;5087546;27;20059;-69
2023/05/28 02:36:55;;;;;;;9.13;2.28;;;;;;;9.73;51.92;102237.09;5086712;28;20099;-69
2023/05/28 02:39:22;;;;;;;7.80;1.88;;;;;;;9.72;51.83;102238.00;5089768;28;20349;-69
2023/05/28 02:41:50;;;;;;;13.38;2.20;;;;;;;9.69;52.13;102235.41;5074966;28;20028;-70
2023/05/28 02:44:16;;;;;;;6.60;2.38;;;;;;;9.83;51.94;102239.59;5078730;27;20040;-71
2023/05/28 02:46:41;;;;;;;9.95;2.17;;;;;;;9.83;52.04;102231.75;5075932;27;20523;-68
2023/05/28 02:49:07;;;;;;;9.50;2.53;;;;;;;9.94;51.54;102235.94;5080234;28;20047;-69
2023/05/28 02:51:33;;;;;;;5.53;1.73;;;;;;;9.84;51.77;102244.81;5086417;28;20046;-70
2023/05/28 02:54:19;;;;;;;12.07;3.13;;;;;;;9.87;51.73;102238.66;5072361;27;20039;-70
2023/05/28 02:56:46;;;;;;;7.07;2.38;;;;;;;9.76;52.23;102242.25;5090002;28;20056;-68
2023/05/28 02:59:11;;;;;;;12.82;2.42;;;;;;;9.66;52.55;102251.13;5107923;27;20106;-65
2023/05/28 03:01:37;;;;;;;6.30;1.88;;;;;;;9.68;52.60;102245.88;5080291;27;20242;-67
2023/05/28 03:04:02;;;;;;;8.02;2.90;;;;;;;9.64;52.98;102247.69;5078228;28;20039;-68
2023/05/28 03:06:30;;;;;;;11.63;2.95;;;;;;;9.60;53.17;102240.78;5077577;28;20527;-64
2023/05/28 03:08:56;;;;;;;6.13;2.47;;;;;;;9.71;52.82;102233.63;5112921;27;20448;-65
2023/05/28 03:11:22;;;;;;;3.03;1.30;;;;;;;9.73;53.19;102237.09;5084975;28;20036;-66
2023/05/28 03:13:47;;;;;;;10.07;2.67;;;;;;;9.77;52.84;102238.78;5076969;28;20317;-68
2023/05/28 03:16:16;;;;;;;6.88;2.20;;;;;;;9.76;53.15;102237.03;5079642;28;20039;-66
2023/05/28 03:18:43;;;;;;;7.30;2.38;;;;;;;9.82;53.17;102240.50;5089869;27;20471;-64
2023/05/28 03:21:11;;;;;;;6.90;2.17;;;;;;;9.84;53.14;102238.72;5070516;28;20127;-68
2023/05/28 03:23:37;;;;;;;6.32;2.60;;;;;;;9.79;53.39;102231.81;5083789;27;20040;-65
2023/05/28 03:26:07;;;;;;;14.70;2.80;;;;;;;9.89;53.13;102221.22;5079989;27;20032;-70
2023/05/28 03:28:32;;;;;;;8.15;2.47;;;;;;;9.91;53.24;102225.53;5088678;28;20034;-71
2023/05/28 03:31:28;;;;;;;15.18;3.45;;;;;;;9.87;53.41;102229.09;5084549;28;20043;-70
2023/05/28 03:33:53;;;;;;;10.35;2.75;;;;;;;9.85;53.56;102224.78;5072137;28;20596;-71
2023/05/28 03:36:19;;;;;;;6.63;3.33;;;;;;;9.92;53.15;102236.84;5087266;28;20089;-69
2023/05/28 03:38:44;;;;;;;10.18;2.97;;;;;;;9.99;52.74;102233.25;5084671;27;20039;-69
2023/05/28 03:41:10;;;;;;;9.45;3.30;;;;;;;9.89;53.18;102229.06;5090082;27;20055;-69
2023/05/28 03:43:39;;;;;;;6.70;3.05;;;;;;;9.88;53.08;102235.16;5088732;28;20039;-70
2023/05/28 03:46:06;;;;;;;16.85;3.50;;;;;;;9.90;53.45;102238.63;5121351;27;20447;-70
2023/05/28 03:48:32;;;;;;;10.00;2.70;;;;;;;9.90;53.83;102238.63;5079602;28;20354;-71
2023/05/28 03:50:58;;;;;;;12.73;3.13;;;;;;;9.89;53.52;102245.59;5085474;28;20032;-69
2023/05/28 03:53:23;;;;;;;13.43;3.13;;;;;;;9.99;53.66;102233.25;5075351;28;20137;-71
2023/05/28 03:55:51;;;;;;;12.60;3.38;;;;;;;10.09;53.64;102234.84;5082506;28;20035;-69
2023/05/28 03:58:18;;;;;;;10.40;3.42;;;;;;;10.03;53.47;102242.75;5080200;28;20032;-69
2023/05/28 04:00:43;;;;;;;11.98;3.47;;;;;;;9.89;54.01;102242.13;5091073;28;20039;-73
2023/05/28 04:03:09;;;;;;;15.85;3.17;;;;;;;10.02;54.01;102238.44;5078866;28;20044;-72
2023/05/28 04:05:37;;;;;;;10.85;3.25;;;;;;;10.05;53.82;102242.75;5082435;28;20027;-74
2023/05/28 04:08:03;;;;;;;8.85;3.15;;;;;;;9.95;54.05;102239.44;5078884;28;20050;-74
2023/05/28 04:10:28;;;;;;;7.95;2.83;;;;;;;10.31;52.72;102230.13;5079010;28;20035;-72
2023/05/28 04:12:56;;;;;;;10.85;3.28;;;;;;;10.36;53.03;102237.88;5110517;27;20520;-74
2023/05/28 04:15:21;;;;;;;9.27;2.70;;;;;;;10.34;52.79;102227.44;5111351;27;20500;-72
2023/05/28 04:17:47;;;;;;;10.93;2.72;;;;;;;10.37;53.29;102234.34;5052070;28;20131;-73
2023/05/28 04:20:14;;;;;;;10.48;3.40;;;;;;;10.41;52.99;102231.69;5072483;28;20679;-72
2023/05/28 04:22:39;;;;;;;9.98;3.22;;;;;;;10.34;53.36;102237.03;5107341;27;20036;-74
2023/05/28 04:25:06;;;;;;;12.80;3.22;;;;;;;10.31;53.03;102237.09;5078295;28;20131;-69
2023/05/28 04:27:31;;;;;;;5.82;2.92;;;;;;;10.37;52.61;102229.13;5076360;27;20389;-69
2023/05/28 04:29:57;;;;;;;8.38;3.10;;;;;;;10.43;52.67;102234.25;5059038;28;20076;-70
2023/05/28 04:32:24;;;;;;;9.98;3.58;;;;;;;10.35;53.33;102236.16;5107876;27;20039;-70
2023/05/28 04:34:54;;;;;;;13.23;3.13;;;;;;;10.33;53.14;102230.09;5079315;28;20032;-70
2023/05/28 04:37:21;;;;;;;10.98;3.30;;;;;;;10.45;53.10;102231.63;5086572;28;20039;-65
2023/05/28 04:39:48;;;;;;;12.93;3.70;;;;;;;10.35;53.28;102244.00;5098634;27;20469;-69
2023/05/28 04:42:16;;;;;;;9.25;2.65;;;;;;;10.43;52.84;102242.09;5090592;28;20031;-67
2023/05/28 04:44:45;;;;;;;11.68;4.13;;;;;;;10.22;53.50;102238.97;5079913;28;20481;-68
2023/05/28 04:47:14;;;;;;;16.15;2.83;;;;;;;10.33;53.06;102238.78;5064566;27;20117;-68
2023/05/28 04:49:40;;;;;;;9.73;2.47;;;;;;;10.55;52.84;102228.81;5105614;27;20038;-68
2023/05/28 04:52:07;;;;;;;9.55;2.35;;;;;;;10.65;52.27;102234.72;5085752;28;20376;-68
2023/05/28 04:54:34;;;;;;;8.23;3.08;;;;;;;10.76;51.90;102239.75;5083641;28;20052;-67
2023/05/28 04:57:02;;;;;;;9.82;2.90;;;;;;;10.86;52.12;102245.69;5088046;27;20575;-68
2023/05/28 04:59:28;;;;;;;17.25;2.38;;;;;;;10.68;51.96;102241.66;5086487;28;20028;-68
2023/05/28 05:01:54;;;;;;;8.77;2.97;;;;;;;10.78;51.48;102244.06;5085742;27;20092;-67
2023/05/28 05:04:20;;;;;;;6.72;2.60;;;;;;;10.60;52.18;102252.25;5080272;27;20288;-67
2023/05/28 05:06:46;;;;;;;7.97;2.70;;;;;;;10.87;51.62;102245.69;5094986;28;20038;-68
2023/05/28 05:09:11;;;;;;;11.10;2.83;;;;;;;11.00;51.11;102255.00;5091406;27;20044;-68
2023/05/28 05:11:38;;;;;;;8.18;2.53;;;;;;;10.79;51.46;102258.00;5079505;27;20706;-69
2023/05/28 05:14:05;;;;;;;5.90;2.58;;;;;;;10.84;51.33;102262.31;5074002;28;20108;-70
2023/05/28 05:16:32;;;;;;;4.53;2.65;;;;;;;11.90;49.96;102260.97;5063453;28;20054;-66
2023/05/28 05:19:00;;;;;;;7.28;2.58;;;;;;;14.18;44.04;102251.03;5076696;27;20036;-68
2023/05/28 05:21:26;;;;;;;7.32;3.15;;;;;;;16.00;39.67;102247.91;5077794;28;20500;-69
2023/05/28 05:23:51;;;;;;;6.85;2.17;;;;;;;16.88;36.44;102249.44;5070609;27;20062;-72
2023/05/28 05:26:17;;;;;;;6.60;2.10;;;;;;;17.29;35.58;102252.81;5086125;28;20387;-71
2023/05/28 05:28:46;;;;;;;7.95;1.83;;;;;;;18.08;34.57;102254.34;5083661;28;20386;-73
2023/05/28 05:31:13;;;;;;;7.57;2.30;;;;;;;18.30;34.29;102247.06;5089128;27;20039;-73
2023/05/28 05:33:43;;;;;;;4.10;1.80;;;;;;;18.60;33.76;102252.53;5080528;28;20028;-72
2023/05/28 05:36:30;;;;;;;12.80;2.92;;;;;;;18.82;33.31;102252.25;5112388;27;20101;-73
2023/05/28 05:39:04;;;;;;;8.18;2.60;;;;;;;18.35;33.68;102257.41;5076544;28;20041;-69
2023/05/28 05:41:47;;;;;;;11.00;3.13;;;;;;;19.54;32.17;102249.28;5077037;28;20030;-71
2023/05/28 05:44:22;;;;;;;11.32;2.80;;;;;;;19.82;32.00;102254.75;5074939;28;20521;-69
2023/05/28 05:46:49;;;;;;;8.25;2.30;;;;;;;19.61;32.45;102253.31;5079412;27;20031;-72
2023/05/28 05:49:14;;;;;;;7.35;2.35;;;;;;;19.60;31.57;102254.28;5072559;28;20039;-70
2023/05/28 05:51:41;;;;;;;8.57;2.08;;;;;;;19.04;32.75;102256.44;5079772;28;20032;-72
2023/05/28 05:54:07;;;;;;;6.80;2.67;;;;;;;18.80;33.35;102254.13;5083675;27;20114;-72
2023/05/28 05:56:34;;;;;;;9.07;2.85;;;;;;;19.03;32.72;102260.03;5077595;27;20822;-72
2023/05/28 05:59:00;;;;;;;5.65;1.95;;;;;;;18.96;32.81;102264.78;5067655;28;20047;-66
2023/05/28 06:01:25;;;;;;;5.65;1.70;;;;;;;19.55;31.93;102267.78;5080234;27;20059;-67
2023/05/28 06:03:52;;;;;;;7.35;1.75;;;;;;;19.50;31.94;102275.97;5079631;27;20089;-67
2023/05/28 06:06:50;;;;;;;6.90;1.73;;;;;;;19.15;31.35;102269.13;5042330;28;20563;-68
2023/05/28 06:09:24;;;;;;;9.88;2.45;;;;;;;19.66;31.03;102275.16;5078315;27;20794;-69
2023/05/28 06:11:54;;;;;;;7.25;2.30;;;;;;;19.89;30.07;102276.47;5080193;27;20070;-67
2023/05/28 06:14:23;;;;;;;4.55;1.52;;;;;;;20.11;29.77;102282.25;5081428;27;22066;-69
2023/05/28 06:16:48;;;;;;;5.18;1.88;;;;;;;20.70;29.04;102284.09;5076867;27;20118;-68
2023/05/28 06:19:15;;;;;;;3.03;1.73;;;;;;;20.60;28.20;102282.97;5075065;27;20036;-68
2023/05/28 06:21:41;;;;;;;8.73;2.75;;;;;;;20.62;28.85;102278.38;5077239;28;20035;-70
2023/05/28 06:24:07;;;;;;;6.53;2.40;;;;;;;20.68;28.65;102280.66;5073275;27;20044;-69
2023/05/28 06:26:34;;;;;;;9.43;2.22;;;;;;;20.77;27.62;102279.25;5077786;27;20852;-68
2023/05/28 06:29:00;;;;;;;4.60;2.13;;;;;;;19.99;29.01;102282.94;5083254;27;20036;-68
2023/05/28 06:31:30;;;;;;;6.70;2.17;;;;;;;19.79;29.21;102288.53;5063831;27;20032;-67
2023/05/28 06:33:55;;;;;;;6.88;1.55;;;;;;;20.36;27.84;102286.13;5059152;27;20058;-68
2023/05/28 06:36:22;;;;;;;7.65;1.92;;;;;;;21.42;26.50;102281.41;5074888;27;20172;-70
2023/05/28 06:38:48;;;;;;;7.03;1.83;;;;;;;21.91;24.51;102283.53;5075284;27;20585;-69
2023/05/28 06:41:13;;;;;;;6.55;1.48;;;;;;;21.51;24.89;102280.84;5078651;27;20040;-69
2023/05/28 06:43:47;;;;;;;4.97;1.52;;;;;;;22.09;24.48;102279.72;5105698;27;20412;-67
2023/05/28 06:46:22;;;;;;;5.70;1.55;;;;;;;23.02;23.73;102279.53;5075566;27;20036;-67
2023/05/28 06:48:48;;;;;;;4.18;2.10;;;;;;;23.74;22.38;102268.09;5074920;27;20516;-66
2023/05/28 06:51:14;;;;;;;3.20;1.50;;;;;;;23.85;21.72;102276.19;5077211;27;20031;-65
2023/05/28 06:53:40;;;;;;;7.05;1.55;;;;;;;23.41;21.02;102269.66;5076144;27;20040;-64
2023/05/28 06:56:06;;;;;;;6.57;2.20;;;;;;;23.17;21.28;102274.94;5083613;27;20032;-67
2023/05/28 06:58:43;;;;;;;4.70;1.17;;;;;;;23.47;20.79;102279.00;5072360;28;20048;-65
2023/05/28 07:01:29;;;;;;;3.83;1.13;;;;;;;23.83;20.01;102281.63;5055344;27;20046;-69
2023/05/28 07:04:13;;;;;;;4.47;2.03;;;;;;;23.75;19.45;102285.84;5079960;27;20123;-67
2023/05/28 07:06:45;;;;;;;5.07;1.23;;;;;;;23.76;19.24;102277.69;5107864;27;20032;-67
2023/05/28 07:09:20;;;;;;;3.45;1.23;;;;;;;23.31;19.15;102285.47;5060520;27;20043;-68
2023/05/28 07:11:49;;;;;;;4.93;1.50;;;;;;;23.21;19.35;102281.75;5072866;28;20034;-67
2023/05/28 07:14:15;;;;;;;3.92;0.82;;;;;;;23.20;20.10;102283.53;5104064;27;20044;-67
2023/05/28 07:16:40;;;;;;;5.72;1.02;;;;;;;24.47;18.34;102293.78;5083237;28;20048;-67
2023/05/28 07:19:07;;;;;;;3.92;1.27;;;;;;;24.20;18.74;102292.22;5077474;28;20051;-68
2023/05/28 07:21:32;;;;;;;3.08;1.10;;;;;;;24.50;17.92;102282.84;5082863;28;20032;-68
2023/05/28 07:23:58;;;;;;;6.50;1.77;;;;;;;24.68;18.61;102293.06;5090456;27;20761;-68
2023/05/28 07:26:26;;;;;;;4.82;1.23;;;;;;;24.93;17.88;102295.50;5073574;27;20042;-68
2023/05/28 07:28:54;;;;;;;3.97;1.70;;;;;;;25.22;18.18;102297.72;5077316;27;20036;-68
2023/05/28 07:31:20;;;;;;;3.95;1.10;;;;;;;25.01;18.91;102294.94;5081057;27;20496;-67
2023/05/28 07:33:46;;;;;;;2.95;1.35;;;;;;;24.64;18.84;102287.97;5074927;27;20032;-67
2023/05/28 07:36:14;;;;;;;3.72;1.85;;;;;;;24.67;18.49;102289.53;5073628;27;20039;-67
2023/05/28 07:38:42;;;;;;;3.83;1.15;;;;;;;25.37;18.63;102285.75;5075840;27;20040;-68
2023/05/28 07:41:08;;;;;;;4.78;1.50;;;;;;;26.07;16.45;102295.19;5075381;28;20523;-67
2023/05/28 07:43:54;;;;;;;6.43;2.03;;;;;;;25.94;17.13;102296.31;5089179;27;20051;-68
2023/05/28 07:46:22;;;;;;;2.95;1.35;;;;;;;25.64;16.52;102295.19;5076886;28;20073;-67
2023/05/28 07:48:51;;;;;;;3.00;1.33;;;;;;;25.47;15.71;102299.25;5092289;27;20163;-68
2023/05/28 07:51:43;;;;;;;3.95;1.30;;;;;;;25.39;15.61;102301.69;5074352;27;20047;-69
2023/05/28 07:54:19;;;;;;;3.22;1.38;;;;;;;24.33;16.69;102299.31;5072019;28;20599;-69
2023/05/28 07:56:46;;;;;;;4.15;1.13;;;;;;;24.44;15.80;102294.88;5065960;28;20899;-67
2023/05/28 07:59:21;;;;;;;2.30;1.02;;;;;;;24.21;15.65;102295.75;5073338;28;20039;-69
2023/05/28 08:01:47;;;;;;;3.83;1.50;;;;;;;24.44;16.56;102294.03;5077753;28;20166;-67
2023/05/28 08:04:13;;;;;;;4.55;1.77;;;;;;;24.91;16.82;102288.59;5073763;28;20267;-67
2023/05/28 08:06:39;;;;;;;5.13;1.73;;;;;;;24.55;16.29;102296.72;5076397;28;20500;-66
2023/05/28 08:09:09;;;;;;;4.88;1.77;;;;;;;25.01;15.84;102293.09;5076869;27;20231;-67
2023/05/28 08:11:35;;;;;;;3.60;2.00;;;;;;;24.96;17.47;102292.59;5070803;28;20038;-66
2023/05/28 08:14:03;;;;;;;3.70;2.25;;;;;;;23.97;17.64;102298.47;5075011;28;20032;-66
2023/05/28 08:16:30;;;;;;;5.78;2.20;;;;;;;24.56;18.27;102289.53;5103206;27;20027;-67
2023/05/28 08:19:15;;;;;;;4.22;2.33;;;;;;;25.02;17.51;102291.28;5072940;28;20054;-66
2023/05/28 08:21:43;;;;;;;5.68;2.80;;;;;;;25.04;17.96;102292.88;5066916;28;20043;-67
2023/05/28 08:24:10;;;;;;;7.30;2.70;;;;;;;25.84;17.40;102297.09;5081033;28;20035;-66
2023/05/28 08:26:37;;;;;;;3.45;2.40;;;;;;;25.93;16.67;102294.59;5103034;27;20024;-67
2023/05/28 08:29:04;;;;;;;3.78;1.90;;;;;;;25.51;14.35;102283.75;5082595;28;20280;-66
2023/05/28 08:31:33;;;;;;;4.30;2.22;;;;;;;24.91;15.11;102281.41;5070768;28;20093;-66
2023/05/28 08:34:10;;;;;;;2.90;2.05;;;;;;;24.43;14.54;102285.13;5069407;28;20054;-68
2023/05/28 08:36:37;;;;;;;2.83;1.45;;;;;;;24.13;15.85;102274.97;5073033;28;20028;-67
2023/05/28 08:39:04;;;;;;;6.82;1.88;;;;;;;24.84;16.07;102277.53;5063889;28;20424;-66
2023/05/28 08:41:30;;;;;;;4.15;1.63;;;;;;;25.36;13.93;102285.88;5105476;27;20046;-68
2023/05/28 08:43:56;;;;;;;7.40;2.15;;;;;;;25.05;16.46;102289.19;5102910;27;20040;-66
2023/05/28 08:46:22;;;;;;;5.88;2.40;;;;;;;25.48;17.46;102291.06;5072078;28;20032;-65
2023/05/28 08:49:08;;;;;;;5.80;2.05;;;;;;;25.91;15.54;102288.50;5074116;27;20066;-66
2023/05/28 08:51:36;;;;;;;4.20;1.98;;;;;;;25.84;14.10;102289.06;5071708;28;20105;-67
2023/05/28 08:54:03;;;;;;;3.55;1.70;;;;;;;25.23;15.98;102286.03;5074721;28;20071;-67
2023/05/28 08:56:29;;;;;;;4.35;2.08;;;;;;;25.64;17.30;102292.50;5062593;28;20038;-65
2023/05/28 08:58:56;;;;;;;5.38;2.22;;;;;;;25.71;17.36;102293.72;5075624;28;20039;-67
2023/05/28 09:01:22;;;;;;;3.15;1.33;;;;;;;25.33;18.10;102303.03;5088929;27;20085;-67
2023/05/28 09:04:14;;;;;;;7.00;2.72;;;;;;;24.33;19.11;102292.13;5067112;28;20048;-67
2023/05/28 09:06:43;;;;;;;3.63;1.58;;;;;;;24.32;19.08;102289.56;5078742;28;20038;-66
2023/05/28 09:09:16;;;;;;;4.25;1.70;;;;;;;24.88;18.38;102292.34;5062409;28;20039;-67
2023/05/28 09:11:45;;;;;;;5.55;2.10;;;;;;;25.36;18.03;102301.94;5078389;28;20032;-66
2023/05/28 09:14:12;;;;;;;3.85;2.25;;;;;;;24.30;18.52;102292.34;5078645;28;20035;-69
2023/05/28 09:16:43;;;;;;;4.55;1.65;;;;;;;23.94;18.50;102299.53;5075394;28;20476;-67
2023/05/28 09:19:15;;;;;;;6.50;2.30;;;;;;;23.88;20.48;102293.78;5070824;28;20031;-68
2023/05/28 09:21:57;;;;;;;4.78;1.50;;;;;;;23.25;20.94;102293.03;5078146;28;20470;-69
2023/05/28 09:24:33;;;;;;;8.20;2.53;;;;;;;23.06;20.57;102288.19;5074314;27;20061;-68
2023/05/28 09:27:25;;;;;;;6.82;1.90;;;;;;;22.41;21.70;102292.66;5079602;28;20039;-68
2023/05/28 09:29:53;;;;;;;4.45;2.03;;;;;;;22.40;23.20;102301.56;5083160;28;22010;-69
2023/05/28 09:32:20;;;;;;;9.00;3.05;;;;;;;22.65;23.09;102294.56;5074511;27;20523;-68
2023/05/28 09:34:48;;;;;;;3.05;1.65;;;;;;;21.90;22.90;102297.81;5074196;27;20020;-68
2023/05/28 09:37:16;;;;;;;5.22;1.85;;;;;;;21.02;22.18;102297.22;5058576;28;20311;-68
2023/05/28 09:39:42;;;;;;;4.68;2.08;;;;;;;20.52;23.97;102297.53;5070299;27;20768;-68
2023/05/28 09:42:11;;;;;;;7.30;2.17;;;;;;;20.20;23.39;102303.88;5068509;27;20035;-69
2023/05/28 09:44:40;;;;;;;4.63;2.30;;;;;;;19.98;23.35;102297.16;5085518;27;20024;-68
2023/05/28 09:47:21;;;;;;;7.25;2.33;;;;;;;20.08;24.08;102306.31;5082543;27;20036;-66
2023/05/28 09:49:51;;;;;;;2.88;1.55;;;;;;;19.97;25.75;102310.50;5082100;27;20504;-67
2023/05/28 09:52:21;;;;;;;3.15;1.52;;;;;;;19.59;25.26;102301.16;5079594;27;20028;-67
2023/05/28 09:54:55;;;;;;;5.32;1.95;;;;;;;20.36;24.37;102307.38;5070191;28;20020;-67
2023/05/28 09:57:30;;;;;;;4.30;2.03;;;;;;;20.26;22.51;102307.06;5057725;27;20571;-69
2023/05/28 10:00:02;;;;;;;3.83;1.77;;;;;;;19.46;22.30;102305.41;5096795;27;20031;-67
2023/05/28 10:02:55;;;;;;;5.43;1.40;;;;;;;20.08;23.14;102303.66;5049094;27;20461;-67
2023/05/28 10:05:28;;;;;;;3.83;1.42;;;;;;;19.88;23.49;102303.94;5085994;27;20301;-68
2023/05/28 10:07:56;;;;;;;4.55;1.35;;;;;;;20.20;22.39;102301.22;5048695;28;20732;-67
2023/05/28 10:10:25;;;;;;;6.63;1.90;;;;;;;20.33;23.38;102291.63;5051625;28;20032;-69
2023/05/28 10:12:53;;;;;;;3.72;1.55;;;;;;;19.65;24.33;102297.28;5044525;28;20059;-67
2023/05/28 10:15:19;;;;;;;1.88;1.33;;;;;;;20.30;23.46;102299.75;5049740;28;20368;-67
2023/05/28 10:17:50;;;;;;;2.45;0.88;;;;;;;20.26;24.61;102296.44;5051558;27;20566;-67
2023/05/28 10:20:28;;;;;;;6.18;1.17;;;;;;;19.93;23.91;102304.53;5093083;27;20043;-67
2023/05/28 10:22:54;;;;;;;3.00;1.25;;;;;;;20.12;24.99;102305.16;5057335;27;20453;-68
2023/05/28 10:25:22;;;;;;;3.65;1.20;;;;;;;20.08;24.80;102298.34;5052359;28;20043;-68
2023/05/28 10:27:52;;;;;;;5.13;1.13;;;;;;;20.42;24.99;102307.00;5049402;28;20036;-69
2023/05/28 10:30:36;;;;;;;2.10;1.03;;;;;;;19.92;22.62;102308.13;5056686;28;20287;-67
2023/05/28 10:33:11;;;;;;;4.60;0.93;;;;;;;20.21;24.24;102309.13;5052809;27;20056;-67
2023/05/28 10:35:53;;;;;;;4.85;1.02;;;;;;;20.06;25.64;102309.97;5063833;27;20044;-68
2023/05/28 10:38:22;;;;;;;5.32;1.75;;;;;;;20.03;26.25;102305.69;5044410;28;20058;-66
2023/05/28 10:40:50;;;;;;;5.50;0.90;;;;;;;20.32;24.56;102311.16;5055570;28;20036;-67
2023/05/28 10:43:46;;;;;;;2.90;1.02;;;;;;;19.59;27.68;102306.47;5052025;27;20047;-67
2023/05/28 10:46:22;;;;;;;3.03;1.23;;;;;;;18.93;29.38;102317.97;5042515;28;20051;-67
2023/05/28 10:49:10;;;;;;;5.10;0.73;;;;;;;19.62;28.64;102316.03;5043408;27;20149;-67
2023/05/28 10:51:45;;;;;;;7.10;1.00;;;;;;;20.05;28.22;102319.75;5052679;28;20068;-66
2023/05/28 10:54:28;;;;;;;7.68;1.95;;;;;;;20.22;27.93;102317.97;5055424;27;20155;-68
2023/05/28 10:57:15;;;;;;;3.65;1.10;;;;;;;20.35;27.48;102316.28;5054812;28;20040;-67
2023/05/28 10:59:50;;;;;;;7.90;2.15;;;;;;;20.00;28.29;102323.63;5041370;28;20059;-68
2023/05/28 11:02:22;;;;;;;2.72;1.23;;;;;;;19.88;28.71;102322.50;5047447;27;20108;-68
2023/05/28 11:04:59;;;;;;;7.32;1.25;;;;;;;20.40;29.13;102313.38;5076276;27;20347;-67
2023/05/28 11:07:38;;;;;;;5.10;1.52;;;;;;;20.18;29.55;102319.03;5055732;28;20033;-68
2023/05/28 11:10:14;;;;;;;3.10;1.00;;;;;;;20.15;29.78;102317.44;5073708;28;20028;-69
2023/05/28 11:12:45;;;;;;;11.63;1.85;;;;;;;18.96;31.30;102317.78;5046615;28;20032;-67
2023/05/28 11:15:14;;;;;;;5.45;1.55;;;;;;;19.11;31.44;102305.53;5057349;28;20042;-68
2023/05/28 11:17:46;;;;;;;4.78;1.75;;;;;;;19.80;29.99;102309.69;5056002;27;20063;-66
2023/05/28 11:20:24;;;;;;;;;;;;;;;19.62;30.39;102318.69;5052845;28;20036;-67
2023/05/28 11:22:55;;;;;;;8.60;2.28;;;;;;;19.76;30.64;102312.59;5057058;28;20312;-68
2023/05/28 11:25:22;;;;;;;9.30;2.25;;;;;;;18.92;32.05;102318.03;5051900;28;20444;-68
2023/05/28 11:27:52;;;;;;;8.63;2.53;;;;;;;19.62;31.82;102311.59;5044848;27;20044;-68
2023/05/28 11:30:20;;;;;;;10.15;2.28;;;;;;;19.32;32.36;102313.25;5053634;28;20038;-66
2023/05/28 11:32:51;;;;;;;9.20;2.33;;;;;;;19.74;32.31;102319.78;5048045;28;20420;-67
2023/05/28 11:35:26;;;;;;;6.88;2.33;;;;;;;19.51;31.89;102313.94;5051987;28;20028;-67